<?xml version="1.0" encoding="UTF-8" standalone="no" ?>
<gpx xmlns="http://www.topografix.com/GPX/1/1" xmlns:xsi="http://www.w3.org/2001/XMLSchema-instance" xsi:schemaLocation="http://www.topografix.com/GPX/1/1 http://www.topografix.com/GPX/1/1/gpx.xsd" version="1.1" creator="VisuGPX - https://www.visugpx.com">
  <metadata>
    <name>Breitenbike 1</name>
  </metadata>
  <trk>
    <name><![CDATA[5967289-Breitenbike 1]]></name>
    <trkseg>
      <trkpt lat="48.02443" lon="7.10026">
        <ele>430</ele>
        <time>2019-05-06T12:20:22Z</time>
      </trkpt>
      <trkpt lat="48.02372" lon="7.10116">
        <ele>438</ele>
        <time>2019-05-06T12:21:22Z</time>
      </trkpt>
      <trkpt lat="48.02392" lon="7.10288">
        <ele>441</ele>
        <time>2019-05-06T12:22:22Z</time>
      </trkpt>
      <trkpt lat="48.02486" lon="7.10412">
        <ele>435</ele>
        <time>2019-05-06T12:23:22Z</time>
      </trkpt>
      <trkpt lat="48.02573" lon="7.10781">
        <ele>443</ele>
        <time>2019-05-06T12:24:22Z</time>
      </trkpt>
      <trkpt lat="48.02656" lon="7.11103">
        <ele>465</ele>
        <time>2019-05-06T12:25:22Z</time>
      </trkpt>
      <trkpt lat="48.02742" lon="7.11644">
        <ele>503</ele>
        <time>2019-05-06T12:26:22Z</time>
      </trkpt>
      <trkpt lat="48.02762" lon="7.11768">
        <ele>505</ele>
        <time>2019-05-06T12:27:22Z</time>
      </trkpt>
      <trkpt lat="48.02613" lon="7.12077">
        <ele>524</ele>
        <time>2019-05-06T12:28:22Z</time>
      </trkpt>
      <trkpt lat="48.02627" lon="7.11983">
        <ele>539</ele>
        <time>2019-05-06T12:29:22Z</time>
      </trkpt>
      <trkpt lat="48.0265" lon="7.11858">
        <ele>542</ele>
        <time>2019-05-06T12:30:22Z</time>
      </trkpt>
      <trkpt lat="48.02466" lon="7.11412">
        <ele>578</ele>
        <time>2019-05-06T12:31:22Z</time>
      </trkpt>
      <trkpt lat="48.02509" lon="7.11665">
        <ele>596</ele>
        <time>2019-05-06T12:32:22Z</time>
      </trkpt>
      <trkpt lat="48.02466" lon="7.11833">
        <ele>599</ele>
        <time>2019-05-06T12:33:22Z</time>
      </trkpt>
      <trkpt lat="48.02409" lon="7.11562">
        <ele>617</ele>
        <time>2019-05-06T12:34:22Z</time>
      </trkpt>
      <trkpt lat="48.023" lon="7.11318">
        <ele>625</ele>
        <time>2019-05-06T12:35:22Z</time>
      </trkpt>
      <trkpt lat="48.02306" lon="7.11541">
        <ele>642</ele>
        <time>2019-05-06T12:36:22Z</time>
      </trkpt>
      <trkpt lat="48.0226" lon="7.11631">
        <ele>644</ele>
        <time>2019-05-06T12:37:22Z</time>
      </trkpt>
      <trkpt lat="48.02116" lon="7.11674">
        <ele>667</ele>
        <time>2019-05-06T12:38:22Z</time>
      </trkpt>
      <trkpt lat="48.0195" lon="7.11837">
        <ele>680</ele>
        <time>2019-05-06T12:39:22Z</time>
      </trkpt>
      <trkpt lat="48.01904" lon="7.12047">
        <ele>697</ele>
        <time>2019-05-06T12:40:22Z</time>
      </trkpt>
      <trkpt lat="48.01938" lon="7.12219">
        <ele>705</ele>
        <time>2019-05-06T12:41:22Z</time>
      </trkpt>
      <trkpt lat="48.01884" lon="7.12283">
        <ele>711</ele>
        <time>2019-05-06T12:42:22Z</time>
      </trkpt>
      <trkpt lat="48.01671" lon="7.12266">
        <ele>732</ele>
        <time>2019-05-06T12:43:22Z</time>
      </trkpt>
      <trkpt lat="48.01487" lon="7.1218">
        <ele>742</ele>
        <time>2019-05-06T12:44:22Z</time>
      </trkpt>
      <trkpt lat="48.01223" lon="7.12184">
        <ele>744</ele>
        <time>2019-05-06T12:45:22Z</time>
      </trkpt>
      <trkpt lat="48.01149" lon="7.12296">
        <ele>742</ele>
        <time>2019-05-06T12:46:22Z</time>
      </trkpt>
      <trkpt lat="48.01229" lon="7.12099">
        <ele>753</ele>
        <time>2019-05-06T12:47:22Z</time>
      </trkpt>
      <trkpt lat="48.01192" lon="7.12064">
        <ele>755</ele>
        <time>2019-05-06T12:48:22Z</time>
      </trkpt>
      <trkpt lat="48.01163" lon="7.11944">
        <ele>751</ele>
        <time>2019-05-06T12:49:22Z</time>
      </trkpt>
      <trkpt lat="48.00999" lon="7.11837">
        <ele>728</ele>
        <time>2019-05-06T12:50:22Z</time>
      </trkpt>
      <trkpt lat="48.00839" lon="7.11858">
        <ele>732</ele>
        <time>2019-05-06T12:51:22Z</time>
      </trkpt>
      <trkpt lat="48.00629" lon="7.12013">
        <ele>759</ele>
        <time>2019-05-06T12:52:22Z</time>
      </trkpt>
      <trkpt lat="48.0056" lon="7.12064">
        <ele>772</ele>
        <time>2019-05-06T12:53:22Z</time>
      </trkpt>
      <trkpt lat="48.00408" lon="7.12056">
        <ele>794</ele>
        <time>2019-05-06T12:54:22Z</time>
      </trkpt>
      <trkpt lat="48.00253" lon="7.1197">
        <ele>827</ele>
        <time>2019-05-06T12:55:22Z</time>
      </trkpt>
      <trkpt lat="47.99969" lon="7.11944">
        <ele>859</ele>
        <time>2019-05-06T12:56:22Z</time>
      </trkpt>
      <trkpt lat="48.00026" lon="7.1182">
        <ele>849</ele>
        <time>2019-05-06T12:57:22Z</time>
      </trkpt>
      <trkpt lat="48.00161" lon="7.11704">
        <ele>840</ele>
        <time>2019-05-06T12:58:22Z</time>
      </trkpt>
      <trkpt lat="48.00152" lon="7.11455">
        <ele>863</ele>
        <time>2019-05-06T12:59:22Z</time>
      </trkpt>
      <trkpt lat="48.00147" lon="7.11275">
        <ele>869</ele>
        <time>2019-05-06T13:00:22Z</time>
      </trkpt>
      <trkpt lat="48.00293" lon="7.10936">
        <ele>877</ele>
        <time>2019-05-06T13:01:22Z</time>
      </trkpt>
      <trkpt lat="48.00371" lon="7.1079">
        <ele>885</ele>
        <time>2019-05-06T13:02:22Z</time>
      </trkpt>
      <trkpt lat="48.00356" lon="7.10721">
        <ele>890</ele>
        <time>2019-05-06T13:03:22Z</time>
      </trkpt>
      <trkpt lat="48.00198" lon="7.10631">
        <ele>908</ele>
        <time>2019-05-06T13:04:22Z</time>
      </trkpt>
      <trkpt lat="48.00069" lon="7.10605">
        <ele>922</ele>
        <time>2019-05-06T13:05:22Z</time>
      </trkpt>
      <trkpt lat="47.99868" lon="7.10704">
        <ele>948</ele>
        <time>2019-05-06T13:06:22Z</time>
      </trkpt>
      <trkpt lat="47.99713" lon="7.10639">
        <ele>970</ele>
        <time>2019-05-06T13:07:22Z</time>
      </trkpt>
      <trkpt lat="47.99673" lon="7.10386">
        <ele>983</ele>
        <time>2019-05-06T13:08:22Z</time>
      </trkpt>
      <trkpt lat="47.9969" lon="7.10013">
        <ele>987</ele>
        <time>2019-05-06T13:09:22Z</time>
      </trkpt>
      <trkpt lat="47.99406" lon="7.10026">
        <ele>1001</ele>
        <time>2019-05-06T13:10:22Z</time>
      </trkpt>
      <trkpt lat="47.99193" lon="7.10056">
        <ele>1000</ele>
        <time>2019-05-06T13:11:22Z</time>
      </trkpt>
      <trkpt lat="47.99038" lon="7.10305">
        <ele>1005</ele>
        <time>2019-05-06T13:12:22Z</time>
      </trkpt>
      <trkpt lat="47.98975" lon="7.10386">
        <ele>997</ele>
        <time>2019-05-06T13:13:22Z</time>
      </trkpt>
      <trkpt lat="47.98952" lon="7.10549">
        <ele>1008</ele>
        <time>2019-05-06T13:14:22Z</time>
      </trkpt>
      <trkpt lat="47.98794" lon="7.10721">
        <ele>1002</ele>
        <time>2019-05-06T13:15:22Z</time>
      </trkpt>
      <trkpt lat="47.9865" lon="7.10923">
        <ele>1000</ele>
        <time>2019-05-06T13:16:22Z</time>
      </trkpt>
      <trkpt lat="47.9867" lon="7.1118">
        <ele>1018</ele>
        <time>2019-05-06T13:17:22Z</time>
      </trkpt>
      <trkpt lat="47.98432" lon="7.11283">
        <ele>1011</ele>
        <time>2019-05-06T13:18:22Z</time>
      </trkpt>
      <trkpt lat="47.98403" lon="7.11172">
        <ele>1008</ele>
        <time>2019-05-06T13:19:22Z</time>
      </trkpt>
      <trkpt lat="47.98265" lon="7.1118">
        <ele>1026</ele>
        <time>2019-05-06T13:20:22Z</time>
      </trkpt>
      <trkpt lat="47.98217" lon="7.11266">
        <ele>1043</ele>
        <time>2019-05-06T13:21:22Z</time>
      </trkpt>
      <trkpt lat="47.98139" lon="7.11077">
        <ele>1032</ele>
        <time>2019-05-06T13:22:22Z</time>
      </trkpt>
      <trkpt lat="47.98191" lon="7.10845">
        <ele>1016</ele>
        <time>2019-05-06T13:23:22Z</time>
      </trkpt>
      <trkpt lat="47.98179" lon="7.10558">
        <ele>999</ele>
        <time>2019-05-06T13:24:22Z</time>
      </trkpt>
      <trkpt lat="47.98107" lon="7.10197">
        <ele>993</ele>
        <time>2019-05-06T13:25:22Z</time>
      </trkpt>
      <trkpt lat="47.98059" lon="7.09991">
        <ele>983</ele>
        <time>2019-05-06T13:26:22Z</time>
      </trkpt>
      <trkpt lat="47.98067" lon="7.09824">
        <ele>973</ele>
        <time>2019-05-06T13:27:22Z</time>
      </trkpt>
      <trkpt lat="47.97843" lon="7.09764">
        <ele>974</ele>
        <time>2019-05-06T13:28:22Z</time>
      </trkpt>
      <trkpt lat="47.97559" lon="7.09558">
        <ele>960</ele>
        <time>2019-05-06T13:29:22Z</time>
      </trkpt>
      <trkpt lat="47.97438" lon="7.09455">
        <ele>958</ele>
        <time>2019-05-06T13:30:22Z</time>
      </trkpt>
      <trkpt lat="47.97329" lon="7.08944">
        <ele>950</ele>
        <time>2019-05-06T13:31:22Z</time>
      </trkpt>
      <trkpt lat="47.97384" lon="7.08884">
        <ele>946</ele>
        <time>2019-05-06T13:32:22Z</time>
      </trkpt>
      <trkpt lat="47.97533" lon="7.08897">
        <ele>918</ele>
        <time>2019-05-06T13:33:22Z</time>
      </trkpt>
      <trkpt lat="47.97605" lon="7.08725">
        <ele>912</ele>
        <time>2019-05-06T13:34:22Z</time>
      </trkpt>
      <trkpt lat="47.97803" lon="7.08687">
        <ele>876</ele>
        <time>2019-05-06T13:35:22Z</time>
      </trkpt>
      <trkpt lat="47.98036" lon="7.0864">
        <ele>855</ele>
        <time>2019-05-06T13:36:22Z</time>
      </trkpt>
      <trkpt lat="47.98116" lon="7.08331">
        <ele>845</ele>
        <time>2019-05-06T13:37:22Z</time>
      </trkpt>
      <trkpt lat="47.98165" lon="7.08099">
        <ele>840</ele>
        <time>2019-05-06T13:38:22Z</time>
      </trkpt>
      <trkpt lat="47.98128" lon="7.07906">
        <ele>844</ele>
        <time>2019-05-06T13:39:22Z</time>
      </trkpt>
      <trkpt lat="47.98041" lon="7.07816">
        <ele>864</ele>
        <time>2019-05-06T13:40:22Z</time>
      </trkpt>
      <trkpt lat="47.97806" lon="7.07464">
        <ele>888</ele>
        <time>2019-05-06T13:41:22Z</time>
      </trkpt>
      <trkpt lat="47.97384" lon="7.07331">
        <ele>933</ele>
        <time>2019-05-06T13:42:22Z</time>
      </trkpt>
      <trkpt lat="47.97294" lon="7.07236">
        <ele>938</ele>
        <time>2019-05-06T13:43:22Z</time>
      </trkpt>
      <trkpt lat="47.97228" lon="7.07052">
        <ele>937</ele>
        <time>2019-05-06T13:44:22Z</time>
      </trkpt>
      <trkpt lat="47.97246" lon="7.07335">
        <ele>973</ele>
        <time>2019-05-06T13:45:22Z</time>
      </trkpt>
      <trkpt lat="47.97501" lon="7.07623">
        <ele>993</ele>
        <time>2019-05-06T13:46:22Z</time>
      </trkpt>
      <trkpt lat="47.97243" lon="7.07485">
        <ele>1019</ele>
        <time>2019-05-06T13:47:22Z</time>
      </trkpt>
      <trkpt lat="47.97027" lon="7.07404">
        <ele>1028</ele>
        <time>2019-05-06T13:48:22Z</time>
      </trkpt>
      <trkpt lat="47.97067" lon="7.07502">
        <ele>1050</ele>
        <time>2019-05-06T13:49:22Z</time>
      </trkpt>
      <trkpt lat="47.97274" lon="7.07601">
        <ele>1049</ele>
        <time>2019-05-06T13:50:22Z</time>
      </trkpt>
      <trkpt lat="47.97352" lon="7.07721">
        <ele>1055</ele>
        <time>2019-05-06T13:51:22Z</time>
      </trkpt>
      <trkpt lat="47.97375" lon="7.07923">
        <ele>1064</ele>
        <time>2019-05-06T13:52:22Z</time>
      </trkpt>
      <trkpt lat="47.97352" lon="7.08146">
        <ele>1074</ele>
        <time>2019-05-06T13:53:22Z</time>
      </trkpt>
      <trkpt lat="47.97271" lon="7.08442">
        <ele>1075</ele>
        <time>2019-05-06T13:54:22Z</time>
      </trkpt>
      <trkpt lat="47.97159" lon="7.08442">
        <ele>1088</ele>
        <time>2019-05-06T13:55:22Z</time>
      </trkpt>
      <trkpt lat="47.96993" lon="7.08549">
        <ele>1086</ele>
        <time>2019-05-06T13:56:22Z</time>
      </trkpt>
      <trkpt lat="47.96932" lon="7.08661">
        <ele>1090</ele>
        <time>2019-05-06T13:57:22Z</time>
      </trkpt>
      <trkpt lat="47.96912" lon="7.08944">
        <ele>1084</ele>
        <time>2019-05-06T13:58:22Z</time>
      </trkpt>
      <trkpt lat="47.96984" lon="7.09262">
        <ele>1072</ele>
        <time>2019-05-06T13:59:22Z</time>
      </trkpt>
      <trkpt lat="47.97113" lon="7.09498">
        <ele>1061</ele>
        <time>2019-05-06T14:00:22Z</time>
      </trkpt>
      <trkpt lat="47.97203" lon="7.09661">
        <ele>1056</ele>
        <time>2019-05-06T14:01:22Z</time>
      </trkpt>
      <trkpt lat="47.97401" lon="7.09897">
        <ele>1061</ele>
        <time>2019-05-06T14:02:22Z</time>
      </trkpt>
      <trkpt lat="47.97553" lon="7.1009">
        <ele>1082</ele>
        <time>2019-05-06T14:03:22Z</time>
      </trkpt>
      <trkpt lat="47.97846" lon="7.10167">
        <ele>1095</ele>
        <time>2019-05-06T14:04:22Z</time>
      </trkpt>
      <trkpt lat="47.97863" lon="7.10459">
        <ele>1114</ele>
        <time>2019-05-06T14:05:22Z</time>
      </trkpt>
      <trkpt lat="47.98039" lon="7.1091">
        <ele>1087</ele>
        <time>2019-05-06T14:06:22Z</time>
      </trkpt>
      <trkpt lat="47.98018" lon="7.1118">
        <ele>1105</ele>
        <time>2019-05-06T14:07:22Z</time>
      </trkpt>
      <trkpt lat="47.98016" lon="7.1179">
        <ele>1141</ele>
        <time>2019-05-06T14:08:22Z</time>
      </trkpt>
      <trkpt lat="47.98136" lon="7.11996">
        <ele>1148</ele>
        <time>2019-05-06T14:09:22Z</time>
      </trkpt>
      <trkpt lat="47.98334" lon="7.12047">
        <ele>1157</ele>
        <time>2019-05-06T14:10:22Z</time>
      </trkpt>
      <trkpt lat="47.98501" lon="7.12047">
        <ele>1160</ele>
        <time>2019-05-06T14:11:22Z</time>
      </trkpt>
      <trkpt lat="47.98535" lon="7.12279">
        <ele>1163</ele>
        <time>2019-05-06T14:12:22Z</time>
      </trkpt>
      <trkpt lat="47.98478" lon="7.12687">
        <ele>1166</ele>
        <time>2019-05-06T14:13:22Z</time>
      </trkpt>
      <trkpt lat="47.9855" lon="7.12931">
        <ele>1158</ele>
        <time>2019-05-06T14:14:22Z</time>
      </trkpt>
      <trkpt lat="47.98564" lon="7.13038">
        <ele>1155</ele>
        <time>2019-05-06T14:15:22Z</time>
      </trkpt>
      <trkpt lat="47.98492" lon="7.13279">
        <ele>1122</ele>
        <time>2019-05-06T14:16:22Z</time>
      </trkpt>
      <trkpt lat="47.98579" lon="7.13266">
        <ele>1115</ele>
        <time>2019-05-06T14:17:22Z</time>
      </trkpt>
      <trkpt lat="47.98518" lon="7.13352">
        <ele>1102</ele>
        <time>2019-05-06T14:18:22Z</time>
      </trkpt>
      <trkpt lat="47.988" lon="7.1336">
        <ele>1069</ele>
        <time>2019-05-06T14:19:22Z</time>
      </trkpt>
      <trkpt lat="47.98897" lon="7.13382">
        <ele>1046</ele>
        <time>2019-05-06T14:20:22Z</time>
      </trkpt>
      <trkpt lat="47.99032" lon="7.13283">
        <ele>1019</ele>
        <time>2019-05-06T14:21:22Z</time>
      </trkpt>
      <trkpt lat="47.98929" lon="7.13493">
        <ele>1013</ele>
        <time>2019-05-06T14:22:22Z</time>
      </trkpt>
      <trkpt lat="47.98785" lon="7.13498">
        <ele>1020</ele>
        <time>2019-05-06T14:23:22Z</time>
      </trkpt>
      <trkpt lat="47.98886" lon="7.13749">
        <ele>939</ele>
        <time>2019-05-06T14:24:22Z</time>
      </trkpt>
      <trkpt lat="47.99004" lon="7.1397">
        <ele>888</ele>
        <time>2019-05-06T14:25:22Z</time>
      </trkpt>
      <trkpt lat="47.99019" lon="7.14103">
        <ele>873</ele>
        <time>2019-05-06T14:26:22Z</time>
      </trkpt>
      <trkpt lat="47.9907" lon="7.14701">
        <ele>853</ele>
        <time>2019-05-06T14:27:22Z</time>
      </trkpt>
      <trkpt lat="47.99047" lon="7.14744">
        <ele>849</ele>
        <time>2019-05-06T14:28:22Z</time>
      </trkpt>
      <trkpt lat="47.98874" lon="7.14605">
        <ele>860</ele>
        <time>2019-05-06T14:29:22Z</time>
      </trkpt>
      <trkpt lat="47.98768" lon="7.14641">
        <ele>858</ele>
        <time>2019-05-06T14:30:22Z</time>
      </trkpt>
      <trkpt lat="47.98658" lon="7.14723">
        <ele>857</ele>
        <time>2019-05-06T14:31:22Z</time>
      </trkpt>
      <trkpt lat="47.98478" lon="7.14639">
        <ele>866</ele>
        <time>2019-05-06T14:32:22Z</time>
      </trkpt>
      <trkpt lat="47.9838" lon="7.14433">
        <ele>878</ele>
        <time>2019-05-06T14:33:22Z</time>
      </trkpt>
      <trkpt lat="47.98204" lon="7.14382">
        <ele>866</ele>
        <time>2019-05-06T14:34:22Z</time>
      </trkpt>
      <trkpt lat="47.98084" lon="7.14262">
        <ele>872</ele>
        <time>2019-05-06T14:35:22Z</time>
      </trkpt>
      <trkpt lat="47.98194" lon="7.145">
        <ele>834</ele>
        <time>2019-05-06T14:36:22Z</time>
      </trkpt>
      <trkpt lat="47.98306" lon="7.14566">
        <ele>827</ele>
        <time>2019-05-06T14:37:22Z</time>
      </trkpt>
      <trkpt lat="47.98363" lon="7.14729">
        <ele>813</ele>
        <time>2019-05-06T14:38:22Z</time>
      </trkpt>
      <trkpt lat="47.98363" lon="7.14854">
        <ele>792</ele>
        <time>2019-05-06T14:39:22Z</time>
      </trkpt>
      <trkpt lat="47.98413" lon="7.14948">
        <ele>794</ele>
        <time>2019-05-06T14:40:22Z</time>
      </trkpt>
      <trkpt lat="47.98528" lon="7.14875">
        <ele>802</ele>
        <time>2019-05-06T14:41:22Z</time>
      </trkpt>
      <trkpt lat="47.98597" lon="7.14918">
        <ele>781</ele>
        <time>2019-05-06T14:42:22Z</time>
      </trkpt>
      <trkpt lat="47.98652" lon="7.14916">
        <ele>782</ele>
        <time>2019-05-06T14:43:22Z</time>
      </trkpt>
      <trkpt lat="47.98708" lon="7.14978">
        <ele>761</ele>
        <time>2019-05-06T14:44:22Z</time>
      </trkpt>
      <trkpt lat="47.98778" lon="7.14948">
        <ele>772</ele>
        <time>2019-05-06T14:45:22Z</time>
      </trkpt>
      <trkpt lat="47.9883" lon="7.14918">
        <ele>779</ele>
        <time>2019-05-06T14:46:22Z</time>
      </trkpt>
      <trkpt lat="47.98849" lon="7.14952">
        <ele>778</ele>
        <time>2019-05-06T14:47:22Z</time>
      </trkpt>
      <trkpt lat="47.98874" lon="7.15107">
        <ele>758</ele>
        <time>2019-05-06T14:48:22Z</time>
      </trkpt>
      <trkpt lat="47.98953" lon="7.15178">
        <ele>773</ele>
        <time>2019-05-06T14:49:22Z</time>
      </trkpt>
      <trkpt lat="47.99015" lon="7.15257">
        <ele>780</ele>
        <time>2019-05-06T14:50:22Z</time>
      </trkpt>
      <trkpt lat="47.99014" lon="7.15287">
        <ele>779</ele>
        <time>2019-05-06T14:51:22Z</time>
      </trkpt>
      <trkpt lat="47.98946" lon="7.15328">
        <ele>759</ele>
        <time>2019-05-06T14:52:22Z</time>
      </trkpt>
      <trkpt lat="47.98948" lon="7.15382">
        <ele>756</ele>
        <time>2019-05-06T14:53:22Z</time>
      </trkpt>
      <trkpt lat="47.99114" lon="7.15538">
        <ele>770</ele>
        <time>2019-05-06T14:54:22Z</time>
      </trkpt>
      <trkpt lat="47.99282" lon="7.15519">
        <ele>787</ele>
        <time>2019-05-06T14:55:22Z</time>
      </trkpt>
      <trkpt lat="47.99333" lon="7.15543">
        <ele>786</ele>
        <time>2019-05-06T14:56:22Z</time>
      </trkpt>
      <trkpt lat="47.9943" lon="7.15671">
        <ele>768</ele>
        <time>2019-05-06T14:57:22Z</time>
      </trkpt>
      <trkpt lat="47.99503" lon="7.15658">
        <ele>760</ele>
        <time>2019-05-06T14:58:22Z</time>
      </trkpt>
      <trkpt lat="47.99498" lon="7.1542">
        <ele>758</ele>
        <time>2019-05-06T14:59:22Z</time>
      </trkpt>
      <trkpt lat="47.99518" lon="7.15358">
        <ele>750</ele>
        <time>2019-05-06T15:00:22Z</time>
      </trkpt>
      <trkpt lat="47.99516" lon="7.15216">
        <ele>741</ele>
        <time>2019-05-06T15:01:22Z</time>
      </trkpt>
      <trkpt lat="47.9945" lon="7.14993">
        <ele>729</ele>
        <time>2019-05-06T15:02:22Z</time>
      </trkpt>
      <trkpt lat="47.99328" lon="7.14792">
        <ele>747</ele>
        <time>2019-05-06T15:03:22Z</time>
      </trkpt>
      <trkpt lat="47.99297" lon="7.14674">
        <ele>756</ele>
        <time>2019-05-06T15:04:22Z</time>
      </trkpt>
      <trkpt lat="47.99301" lon="7.14566">
        <ele>771</ele>
        <time>2019-05-06T15:05:22Z</time>
      </trkpt>
      <trkpt lat="47.99354" lon="7.14609">
        <ele>767</ele>
        <time>2019-05-06T15:06:22Z</time>
      </trkpt>
      <trkpt lat="47.99411" lon="7.14661">
        <ele>767</ele>
        <time>2019-05-06T15:07:22Z</time>
      </trkpt>
      <trkpt lat="47.99488" lon="7.14682">
        <ele>771</ele>
        <time>2019-05-06T15:08:22Z</time>
      </trkpt>
      <trkpt lat="47.99554" lon="7.14731">
        <ele>762</ele>
        <time>2019-05-06T15:09:22Z</time>
      </trkpt>
      <trkpt lat="47.99671" lon="7.14774">
        <ele>758</ele>
        <time>2019-05-06T15:10:22Z</time>
      </trkpt>
      <trkpt lat="47.99729" lon="7.1471">
        <ele>762</ele>
        <time>2019-05-06T15:11:22Z</time>
      </trkpt>
      <trkpt lat="47.99821" lon="7.1465">
        <ele>746</ele>
        <time>2019-05-06T15:12:22Z</time>
      </trkpt>
      <trkpt lat="47.99713" lon="7.14399">
        <ele>768</ele>
        <time>2019-05-06T15:13:22Z</time>
      </trkpt>
      <trkpt lat="47.9965" lon="7.1418">
        <ele>764</ele>
        <time>2019-05-06T15:14:22Z</time>
      </trkpt>
      <trkpt lat="47.99671" lon="7.14126">
        <ele>757</ele>
        <time>2019-05-06T15:15:22Z</time>
      </trkpt>
      <trkpt lat="47.99726" lon="7.14144">
        <ele>755</ele>
        <time>2019-05-06T15:16:22Z</time>
      </trkpt>
      <trkpt lat="47.99824" lon="7.14268">
        <ele>746</ele>
        <time>2019-05-06T15:17:22Z</time>
      </trkpt>
      <trkpt lat="47.99908" lon="7.14322">
        <ele>743</ele>
        <time>2019-05-06T15:18:22Z</time>
      </trkpt>
      <trkpt lat="48.00104" lon="7.14334">
        <ele>770</ele>
        <time>2019-05-06T15:19:22Z</time>
      </trkpt>
      <trkpt lat="48.00226" lon="7.14343">
        <ele>779</ele>
        <time>2019-05-06T15:20:22Z</time>
      </trkpt>
      <trkpt lat="48.00274" lon="7.14296">
        <ele>791</ele>
        <time>2019-05-06T15:21:22Z</time>
      </trkpt>
      <trkpt lat="48.00338" lon="7.14262">
        <ele>796</ele>
        <time>2019-05-06T15:22:22Z</time>
      </trkpt>
      <trkpt lat="48.00419" lon="7.14285">
        <ele>810</ele>
        <time>2019-05-06T15:23:22Z</time>
      </trkpt>
      <trkpt lat="48.0047" lon="7.14365">
        <ele>819</ele>
        <time>2019-05-06T15:24:22Z</time>
      </trkpt>
      <trkpt lat="48.00514" lon="7.1462">
        <ele>810</ele>
        <time>2019-05-06T15:25:22Z</time>
      </trkpt>
      <trkpt lat="48.00669" lon="7.14695">
        <ele>832</ele>
        <time>2019-05-06T15:26:22Z</time>
      </trkpt>
      <trkpt lat="48.00757" lon="7.14817">
        <ele>830</ele>
        <time>2019-05-06T15:27:22Z</time>
      </trkpt>
      <trkpt lat="48.00761" lon="7.14987">
        <ele>833</ele>
        <time>2019-05-06T15:28:22Z</time>
      </trkpt>
      <trkpt lat="48.008" lon="7.15121">
        <ele>837</ele>
        <time>2019-05-06T15:29:22Z</time>
      </trkpt>
      <trkpt lat="48.00918" lon="7.15289">
        <ele>831</ele>
        <time>2019-05-06T15:30:22Z</time>
      </trkpt>
      <trkpt lat="48.00887" lon="7.15229">
        <ele>834</ele>
        <time>2019-05-06T15:31:22Z</time>
      </trkpt>
      <trkpt lat="48.00808" lon="7.15074">
        <ele>844</ele>
        <time>2019-05-06T15:32:22Z</time>
      </trkpt>
      <trkpt lat="48.00836" lon="7.14908">
        <ele>856</ele>
        <time>2019-05-06T15:33:22Z</time>
      </trkpt>
      <trkpt lat="48.0082" lon="7.14668">
        <ele>856</ele>
        <time>2019-05-06T15:34:22Z</time>
      </trkpt>
      <trkpt lat="48.0068" lon="7.14556">
        <ele>873</ele>
        <time>2019-05-06T15:35:22Z</time>
      </trkpt>
      <trkpt lat="48.00663" lon="7.1452">
        <ele>874</ele>
        <time>2019-05-06T15:36:22Z</time>
      </trkpt>
      <trkpt lat="48.00665" lon="7.14387">
        <ele>879</ele>
        <time>2019-05-06T15:37:22Z</time>
      </trkpt>
      <trkpt lat="48.00639" lon="7.14319">
        <ele>876</ele>
        <time>2019-05-06T15:38:22Z</time>
      </trkpt>
      <trkpt lat="48.0061" lon="7.14194">
        <ele>882</ele>
        <time>2019-05-06T15:39:22Z</time>
      </trkpt>
      <trkpt lat="48.00609" lon="7.14119">
        <ele>891</ele>
        <time>2019-05-06T15:40:22Z</time>
      </trkpt>
      <trkpt lat="48.00571" lon="7.14042">
        <ele>900</ele>
        <time>2019-05-06T15:41:22Z</time>
      </trkpt>
      <trkpt lat="48.00497" lon="7.1381">
        <ele>911</ele>
        <time>2019-05-06T15:42:22Z</time>
      </trkpt>
      <trkpt lat="48.00448" lon="7.13497">
        <ele>896</ele>
        <time>2019-05-06T15:43:22Z</time>
      </trkpt>
      <trkpt lat="48.00413" lon="7.13443">
        <ele>895</ele>
        <time>2019-05-06T15:44:22Z</time>
      </trkpt>
      <trkpt lat="48.00372" lon="7.13421">
        <ele>897</ele>
        <time>2019-05-06T15:45:22Z</time>
      </trkpt>
      <trkpt lat="48.00372" lon="7.13392">
        <ele>895</ele>
        <time>2019-05-06T15:46:22Z</time>
      </trkpt>
      <trkpt lat="48.00218" lon="7.13247">
        <ele>907</ele>
        <time>2019-05-06T15:47:22Z</time>
      </trkpt>
      <trkpt lat="47.99963" lon="7.1289">
        <ele>920</ele>
        <time>2019-05-06T15:48:22Z</time>
      </trkpt>
      <trkpt lat="47.99822" lon="7.12785">
        <ele>928</ele>
        <time>2019-05-06T15:49:22Z</time>
      </trkpt>
      <trkpt lat="47.99859" lon="7.12697">
        <ele>920</ele>
        <time>2019-05-06T15:50:22Z</time>
      </trkpt>
      <trkpt lat="48.0003" lon="7.12652">
        <ele>896</ele>
        <time>2019-05-06T15:51:22Z</time>
      </trkpt>
      <trkpt lat="48.00194" lon="7.12691">
        <ele>882</ele>
        <time>2019-05-06T15:52:22Z</time>
      </trkpt>
      <trkpt lat="48.00207" lon="7.12536">
        <ele>889</ele>
        <time>2019-05-06T15:53:22Z</time>
      </trkpt>
      <trkpt lat="48.0019" lon="7.12322">
        <ele>895</ele>
        <time>2019-05-06T15:54:22Z</time>
      </trkpt>
      <trkpt lat="47.99974" lon="7.12133">
        <ele>900</ele>
        <time>2019-05-06T15:55:22Z</time>
      </trkpt>
      <trkpt lat="47.99874" lon="7.12086">
        <ele>903</ele>
        <time>2019-05-06T15:56:22Z</time>
      </trkpt>
      <trkpt lat="47.99791" lon="7.11993">
        <ele>905</ele>
        <time>2019-05-06T15:57:22Z</time>
      </trkpt>
      <trkpt lat="47.99773" lon="7.1182">
        <ele>903</ele>
        <time>2019-05-06T15:58:22Z</time>
      </trkpt>
      <trkpt lat="47.99888" lon="7.11736">
        <ele>899</ele>
        <time>2019-05-06T15:59:22Z</time>
      </trkpt>
      <trkpt lat="48.00012" lon="7.11738">
        <ele>880</ele>
        <time>2019-05-06T16:00:22Z</time>
      </trkpt>
      <trkpt lat="48.00124" lon="7.11635">
        <ele>864</ele>
        <time>2019-05-06T16:01:22Z</time>
      </trkpt>
      <trkpt lat="48.00145" lon="7.11483">
        <ele>866</ele>
        <time>2019-05-06T16:02:22Z</time>
      </trkpt>
      <trkpt lat="48.00217" lon="7.11343">
        <ele>847</ele>
        <time>2019-05-06T16:03:22Z</time>
      </trkpt>
      <trkpt lat="48.00353" lon="7.11167">
        <ele>826</ele>
        <time>2019-05-06T16:04:22Z</time>
      </trkpt>
      <trkpt lat="48.00524" lon="7.11026">
        <ele>822</ele>
        <time>2019-05-06T16:05:22Z</time>
      </trkpt>
      <trkpt lat="48.00656" lon="7.11163">
        <ele>824</ele>
        <time>2019-05-06T16:06:22Z</time>
      </trkpt>
      <trkpt lat="48.00778" lon="7.1115">
        <ele>813</ele>
        <time>2019-05-06T16:07:22Z</time>
      </trkpt>
      <trkpt lat="48.00859" lon="7.10936">
        <ele>805</ele>
        <time>2019-05-06T16:08:22Z</time>
      </trkpt>
      <trkpt lat="48.00926" lon="7.10629">
        <ele>772</ele>
        <time>2019-05-06T16:09:22Z</time>
      </trkpt>
      <trkpt lat="48.00859" lon="7.10453">
        <ele>761</ele>
        <time>2019-05-06T16:10:22Z</time>
      </trkpt>
      <trkpt lat="48.0077" lon="7.10221">
        <ele>732</ele>
        <time>2019-05-06T16:11:22Z</time>
      </trkpt>
      <trkpt lat="48.0056" lon="7.10176">
        <ele>750</ele>
        <time>2019-05-06T16:12:22Z</time>
      </trkpt>
      <trkpt lat="48.00473" lon="7.10144">
        <ele>749</ele>
        <time>2019-05-06T16:13:22Z</time>
      </trkpt>
      <trkpt lat="48.00382" lon="7.102">
        <ele>769</ele>
        <time>2019-05-06T16:14:22Z</time>
      </trkpt>
      <trkpt lat="48.00263" lon="7.10163">
        <ele>769</ele>
        <time>2019-05-06T16:15:22Z</time>
      </trkpt>
      <trkpt lat="48.00247" lon="7.10039">
        <ele>759</ele>
        <time>2019-05-06T16:16:22Z</time>
      </trkpt>
      <trkpt lat="48.00211" lon="7.09687">
        <ele>744</ele>
        <time>2019-05-06T16:17:22Z</time>
      </trkpt>
      <trkpt lat="48.00128" lon="7.09571">
        <ele>747</ele>
        <time>2019-05-06T16:18:22Z</time>
      </trkpt>
      <trkpt lat="47.99944" lon="7.09356">
        <ele>763</ele>
        <time>2019-05-06T16:19:22Z</time>
      </trkpt>
      <trkpt lat="47.99882" lon="7.09127">
        <ele>790</ele>
        <time>2019-05-06T16:20:22Z</time>
      </trkpt>
      <trkpt lat="48.00053" lon="7.08858">
        <ele>815</ele>
        <time>2019-05-06T16:21:22Z</time>
      </trkpt>
      <trkpt lat="48.00207" lon="7.08897">
        <ele>799</ele>
        <time>2019-05-06T16:22:22Z</time>
      </trkpt>
      <trkpt lat="48.00384" lon="7.08906">
        <ele>784</ele>
        <time>2019-05-06T16:23:22Z</time>
      </trkpt>
      <trkpt lat="48.00471" lon="7.08908">
        <ele>774</ele>
        <time>2019-05-06T16:24:22Z</time>
      </trkpt>
      <trkpt lat="48.006" lon="7.08758">
        <ele>777</ele>
        <time>2019-05-06T16:25:22Z</time>
      </trkpt>
      <trkpt lat="48.00626" lon="7.08635">
        <ele>775</ele>
        <time>2019-05-06T16:26:22Z</time>
      </trkpt>
      <trkpt lat="48.00672" lon="7.08603">
        <ele>774</ele>
        <time>2019-05-06T16:27:22Z</time>
      </trkpt>
      <trkpt lat="48.00783" lon="7.0856">
        <ele>775</ele>
        <time>2019-05-06T16:28:22Z</time>
      </trkpt>
      <trkpt lat="48.00866" lon="7.08511">
        <ele>769</ele>
        <time>2019-05-06T16:29:22Z</time>
      </trkpt>
      <trkpt lat="48.00913" lon="7.08532">
        <ele>772</ele>
        <time>2019-05-06T16:30:22Z</time>
      </trkpt>
      <trkpt lat="48.00961" lon="7.08528">
        <ele>757</ele>
        <time>2019-05-06T16:31:22Z</time>
      </trkpt>
      <trkpt lat="48.01038" lon="7.08612">
        <ele>741</ele>
        <time>2019-05-06T16:32:22Z</time>
      </trkpt>
      <trkpt lat="48.01147" lon="7.08805">
        <ele>710</ele>
        <time>2019-05-06T16:33:22Z</time>
      </trkpt>
      <trkpt lat="48.0118" lon="7.08974">
        <ele>706</ele>
        <time>2019-05-06T16:34:22Z</time>
      </trkpt>
      <trkpt lat="48.01294" lon="7.08998">
        <ele>684</ele>
        <time>2019-05-06T16:35:22Z</time>
      </trkpt>
      <trkpt lat="48.01378" lon="7.09221">
        <ele>634</ele>
        <time>2019-05-06T16:36:22Z</time>
      </trkpt>
      <trkpt lat="48.01472" lon="7.09176">
        <ele>637</ele>
        <time>2019-05-06T16:37:22Z</time>
      </trkpt>
      <trkpt lat="48.01486" lon="7.09039">
        <ele>637</ele>
        <time>2019-05-06T16:38:22Z</time>
      </trkpt>
      <trkpt lat="48.01615" lon="7.09131">
        <ele>622</ele>
        <time>2019-05-06T16:39:22Z</time>
      </trkpt>
      <trkpt lat="48.01747" lon="7.08944">
        <ele>606</ele>
        <time>2019-05-06T16:40:22Z</time>
      </trkpt>
      <trkpt lat="48.01661" lon="7.08764">
        <ele>616</ele>
        <time>2019-05-06T16:41:22Z</time>
      </trkpt>
      <trkpt lat="48.01503" lon="7.08734">
        <ele>621</ele>
        <time>2019-05-06T16:42:22Z</time>
      </trkpt>
      <trkpt lat="48.01397" lon="7.08786">
        <ele>630</ele>
        <time>2019-05-06T16:43:22Z</time>
      </trkpt>
      <trkpt lat="48.01387" lon="7.08661">
        <ele>621</ele>
        <time>2019-05-06T16:44:22Z</time>
      </trkpt>
      <trkpt lat="48.01284" lon="7.08425">
        <ele>604</ele>
        <time>2019-05-06T16:45:22Z</time>
      </trkpt>
      <trkpt lat="48.01255" lon="7.08324">
        <ele>603</ele>
        <time>2019-05-06T16:46:22Z</time>
      </trkpt>
      <trkpt lat="48.01298" lon="7.08241">
        <ele>608</ele>
        <time>2019-05-06T16:47:22Z</time>
      </trkpt>
      <trkpt lat="48.0136" lon="7.08311">
        <ele>599</ele>
        <time>2019-05-06T16:48:22Z</time>
      </trkpt>
      <trkpt lat="48.01443" lon="7.08328">
        <ele>597</ele>
        <time>2019-05-06T16:49:22Z</time>
      </trkpt>
      <trkpt lat="48.01509" lon="7.08298">
        <ele>596</ele>
        <time>2019-05-06T16:50:22Z</time>
      </trkpt>
      <trkpt lat="48.0149" lon="7.0823">
        <ele>596</ele>
        <time>2019-05-06T16:51:22Z</time>
      </trkpt>
      <trkpt lat="48.01353" lon="7.08174">
        <ele>606</ele>
        <time>2019-05-06T16:52:22Z</time>
      </trkpt>
      <trkpt lat="48.01327" lon="7.08133">
        <ele>607</ele>
        <time>2019-05-06T16:53:22Z</time>
      </trkpt>
      <trkpt lat="48.01265" lon="7.08086">
        <ele>614</ele>
        <time>2019-05-06T16:54:22Z</time>
      </trkpt>
      <trkpt lat="48.01236" lon="7.08092">
        <ele>619</ele>
        <time>2019-05-06T16:55:22Z</time>
      </trkpt>
      <trkpt lat="48.01045" lon="7.07921">
        <ele>630</ele>
        <time>2019-05-06T16:56:22Z</time>
      </trkpt>
      <trkpt lat="48.00872" lon="7.07846">
        <ele>622</ele>
        <time>2019-05-06T16:57:22Z</time>
      </trkpt>
      <trkpt lat="48.00781" lon="7.08056">
        <ele>642</ele>
        <time>2019-05-06T16:58:22Z</time>
      </trkpt>
      <trkpt lat="48.00705" lon="7.08159">
        <ele>639</ele>
        <time>2019-05-06T16:59:22Z</time>
      </trkpt>
      <trkpt lat="48.00722" lon="7.08026">
        <ele>626</ele>
        <time>2019-05-06T17:00:22Z</time>
      </trkpt>
      <trkpt lat="48.00731" lon="7.07807">
        <ele>608</ele>
        <time>2019-05-06T17:01:22Z</time>
      </trkpt>
      <trkpt lat="48.00755" lon="7.07683">
        <ele>593</ele>
        <time>2019-05-06T17:02:22Z</time>
      </trkpt>
      <trkpt lat="48.00811" lon="7.07612">
        <ele>579</ele>
        <time>2019-05-06T17:03:22Z</time>
      </trkpt>
      <trkpt lat="48.00752" lon="7.07595">
        <ele>576</ele>
        <time>2019-05-06T17:04:22Z</time>
      </trkpt>
      <trkpt lat="48.00708" lon="7.07573">
        <ele>565</ele>
        <time>2019-05-06T17:05:22Z</time>
      </trkpt>
      <trkpt lat="48.00668" lon="7.07605">
        <ele>565</ele>
        <time>2019-05-06T17:06:22Z</time>
      </trkpt>
      <trkpt lat="48.00702" lon="7.07543">
        <ele>557</ele>
        <time>2019-05-06T17:07:22Z</time>
      </trkpt>
      <trkpt lat="48.00823" lon="7.07477">
        <ele>542</ele>
        <time>2019-05-06T17:08:22Z</time>
      </trkpt>
      <trkpt lat="48.00905" lon="7.07485">
        <ele>535</ele>
        <time>2019-05-06T17:09:22Z</time>
      </trkpt>
      <trkpt lat="48.01014" lon="7.07532">
        <ele>527</ele>
        <time>2019-05-06T17:10:22Z</time>
      </trkpt>
      <trkpt lat="48.01075" lon="7.07535">
        <ele>517</ele>
        <time>2019-05-06T17:11:22Z</time>
      </trkpt>
      <trkpt lat="48.01124" lon="7.07543">
        <ele>511</ele>
        <time>2019-05-06T17:12:22Z</time>
      </trkpt>
      <trkpt lat="48.01241" lon="7.07554">
        <ele>490</ele>
        <time>2019-05-06T17:13:22Z</time>
      </trkpt>
      <trkpt lat="48.01215" lon="7.07462">
        <ele>486</ele>
        <time>2019-05-06T17:14:22Z</time>
      </trkpt>
      <trkpt lat="48.01245" lon="7.0735">
        <ele>480</ele>
        <time>2019-05-06T17:15:22Z</time>
      </trkpt>
      <trkpt lat="48.01409" lon="7.0738">
        <ele>475</ele>
        <time>2019-05-06T17:16:22Z</time>
      </trkpt>
      <trkpt lat="48.01492" lon="7.07547">
        <ele>470</ele>
        <time>2019-05-06T17:17:22Z</time>
      </trkpt>
      <trkpt lat="48.01599" lon="7.07771">
        <ele>475</ele>
        <time>2019-05-06T17:18:22Z</time>
      </trkpt>
      <trkpt lat="48.01744" lon="7.07949">
        <ele>475</ele>
        <time>2019-05-06T17:19:22Z</time>
      </trkpt>
      <trkpt lat="48.01898" lon="7.08056">
        <ele>465</ele>
        <time>2019-05-06T17:20:22Z</time>
      </trkpt>
      <trkpt lat="48.02027" lon="7.08223">
        <ele>472</ele>
        <time>2019-05-06T17:21:22Z</time>
      </trkpt>
      <trkpt lat="48.02133" lon="7.08374">
        <ele>467</ele>
        <time>2019-05-06T17:22:22Z</time>
      </trkpt>
      <trkpt lat="48.02211" lon="7.08571">
        <ele>468</ele>
        <time>2019-05-06T17:23:22Z</time>
      </trkpt>
      <trkpt lat="48.02278" lon="7.08788">
        <ele>459</ele>
        <time>2019-05-06T17:24:22Z</time>
      </trkpt>
      <trkpt lat="48.02297" lon="7.08977">
        <ele>449</ele>
        <time>2019-05-06T17:25:22Z</time>
      </trkpt>
      <trkpt lat="48.02314" lon="7.09047">
        <ele>447</ele>
        <time>2019-05-06T17:26:22Z</time>
      </trkpt>
      <trkpt lat="48.02306" lon="7.09103">
        <ele>447</ele>
        <time>2019-05-06T17:27:22Z</time>
      </trkpt>
      <trkpt lat="48.02363" lon="7.0923">
        <ele>443</ele>
        <time>2019-05-06T17:28:22Z</time>
      </trkpt>
      <trkpt lat="48.02399" lon="7.0923">
        <ele>442</ele>
        <time>2019-05-06T17:29:22Z</time>
      </trkpt>
      <trkpt lat="48.02383" lon="7.09363">
        <ele>440</ele>
        <time>2019-05-06T17:30:22Z</time>
      </trkpt>
      <trkpt lat="48.02357" lon="7.09528">
        <ele>441</ele>
        <time>2019-05-06T17:31:22Z</time>
      </trkpt>
      <trkpt lat="48.02385" lon="7.09672">
        <ele>438</ele>
        <time>2019-05-06T17:32:22Z</time>
      </trkpt>
      <trkpt lat="48.02385" lon="7.09798">
        <ele>436</ele>
        <time>2019-05-06T17:33:22Z</time>
      </trkpt>
      <trkpt lat="48.02387" lon="7.09923">
        <ele>435</ele>
        <time>2019-05-06T17:34:22Z</time>
      </trkpt>
      <trkpt lat="48.02407" lon="7.10004">
        <ele>432</ele>
        <time>2019-05-06T17:35:22Z</time>
      </trkpt>
      <trkpt lat="48.02419" lon="7.10037">
        <ele>431</ele>
        <time>2019-05-06T17:36:22Z</time>
      </trkpt>
    </trkseg>
  </trk>
</gpx>